createdAt,value
2023-04-27T00:00:18.552Z,664.00
2023-04-27T00:01:18.573Z,676.60
2023-04-27T00:02:18.717Z,637.60
2023-04-27T00:03:18.902Z,646.30
2023-04-27T00:04:18.759Z,697.80
2023-04-27T00:05:18.783Z,643.90
2023-04-27T00:06:18.658Z,671.40
2023-04-27T00:07:18.563Z,642.80
2023-04-27T00:08:18.602Z,688.30
2023-04-27T00:09:18.627Z,690.90
2023-04-27T00:10:18.542Z,683.80
2023-04-27T00:11:18.659Z,693.10
2023-04-27T00:12:18.567Z,655.00
2023-04-27T00:13:18.589Z,717.30
2023-04-27T00:14:18.579Z,691.60
2023-04-27T00:15:18.538Z,662.40
2023-04-27T00:16:18.651Z,698.50
2023-04-27T00:17:18.528Z,752.20
2023-04-27T00:18:18.526Z,781.10
2023-04-27T00:19:18.421Z,799.60
2023-04-27T00:20:18.439Z,821.40
2023-04-27T00:21:18.676Z,724.00
2023-04-27T00:22:18.461Z,778.40
2023-04-27T00:23:18.527Z,673.40
2023-04-27T00:24:18.500Z,730.80
2023-04-27T00:25:18.462Z,659.70
2023-04-27T00:26:18.460Z,697.60
2023-04-27T00:27:18.458Z,722.70
2023-04-27T00:28:18.470Z,701.00
2023-04-27T00:29:18.461Z,749.00
2023-04-27T00:30:18.508Z,799.80
2023-04-27T00:31:18.431Z,705.80
2023-04-27T00:32:18.514Z,762.20
2023-04-27T00:33:18.390Z,769.70
2023-04-27T00:34:18.440Z,784.90
2023-04-27T00:35:18.391Z,808.00
2023-04-27T00:36:18.432Z,804.80
2023-04-27T00:37:18.307Z,770.80
2023-04-27T00:38:18.324Z,773.80
2023-04-27T00:39:18.264Z,780.60
2023-04-27T00:40:19.815Z,733.60
2023-04-27T00:41:18.274Z,733.10
2023-04-27T00:42:18.402Z,704.10
2023-04-27T00:43:18.372Z,703.90
2023-04-27T00:44:18.382Z,781.20
2023-04-27T00:45:18.321Z,711.30
2023-04-27T00:46:18.409Z,760.10
2023-04-27T00:47:18.366Z,773.80
2023-04-27T00:48:18.309Z,767.80
2023-04-27T00:49:18.368Z,757.60
2023-04-27T00:50:18.288Z,811.10
2023-04-27T00:51:18.388Z,812.60
2023-04-27T00:52:18.310Z,725.50
2023-04-27T00:53:18.289Z,671.60
2023-04-27T00:54:18.340Z,670.20
2023-04-27T00:55:18.282Z,660.40
2023-04-27T00:56:18.189Z,681.70
2023-04-27T00:57:19.169Z,638.90
2023-04-27T00:58:18.291Z,678.60
2023-04-27T00:59:18.157Z,696.00
2023-04-27T01:00:18.181Z,615.00
2023-04-27T01:01:18.185Z,614.50
2023-04-27T01:02:19.330Z,636.20
2023-04-27T01:03:18.283Z,619.50
2023-04-27T01:04:18.212Z,665.20
2023-04-27T01:05:18.275Z,692.70
2023-04-27T01:06:18.175Z,728.40
2023-04-27T01:07:18.231Z,794.00
2023-04-27T01:08:18.191Z,731.50
2023-04-27T01:09:18.243Z,844.20
2023-04-27T01:10:18.089Z,808.70
2023-04-27T01:11:18.202Z,720.70
2023-04-27T01:12:18.145Z,719.70
2023-04-27T01:13:18.125Z,699.80
2023-04-27T01:14:18.143Z,685.60
2023-04-27T01:15:18.039Z,718.40
2023-04-27T01:16:18.103Z,660.80
2023-04-27T01:17:18.127Z,653.70
2023-04-27T01:18:18.018Z,664.20
2023-04-27T01:19:18.007Z,687.60
2023-04-27T01:20:18.077Z,712.20
2023-04-27T01:21:18.118Z,680.80
2023-04-27T01:22:18.096Z,680.10
2023-04-27T01:23:18.113Z,711.70
2023-04-27T01:24:18.067Z,656.50
2023-04-27T01:25:18.011Z,661.90
2023-04-27T01:26:18.025Z,660.60
2023-04-27T01:27:18.417Z,651.10
2023-04-27T01:28:18.105Z,606.30
2023-04-27T01:29:18.026Z,597.60
2023-04-27T01:30:18.078Z,616.10
2023-04-27T01:31:18.044Z,561.70
2023-04-27T01:32:18.140Z,598.20
2023-04-27T01:33:17.909Z,631.30
2023-04-27T01:34:17.880Z,616.20
2023-04-27T01:35:17.910Z,615.50
2023-04-27T01:36:17.859Z,579.50
2023-04-27T01:37:17.987Z,625.30
2023-04-27T01:38:17.895Z,563.40
2023-04-27T01:39:17.982Z,624.80
2023-04-27T01:40:33.547Z,645.50
2023-04-27T01:41:17.845Z,543.10
2023-04-27T01:42:18.884Z,584.40
2023-04-27T01:43:17.963Z,598.20
2023-04-27T01:44:17.925Z,636.10
2023-04-27T01:45:17.888Z,627.60
2023-04-27T01:46:17.916Z,650.20
2023-04-27T01:47:17.903Z,663.80
2023-04-27T01:48:17.891Z,664.40
2023-04-27T01:49:18.937Z,637.40
2023-04-27T01:50:17.865Z,679.30
2023-04-27T01:51:17.916Z,632.20
2023-04-27T01:52:17.911Z,657.60
2023-04-27T01:53:17.795Z,633.50
2023-04-27T01:54:36.620Z,618.70
2023-04-27T01:55:17.783Z,610.90
2023-04-27T01:56:17.798Z,574.20
2023-04-27T01:57:17.780Z,541.60
2023-04-27T01:58:17.732Z,611.90
2023-04-27T01:59:17.735Z,627.40
2023-04-27T02:00:17.806Z,626.20
2023-04-27T02:01:17.697Z,588.50
2023-04-27T02:02:20.963Z,563.60
2023-04-27T02:03:18.944Z,609.80
2023-04-27T02:04:17.821Z,545.00
2023-04-27T02:05:17.778Z,566.70
2023-04-27T02:06:17.681Z,526.50
2023-04-27T02:07:17.658Z,489.10
2023-04-27T02:08:17.649Z,446.30
2023-04-27T02:09:17.648Z,408.40
2023-04-27T02:10:17.656Z,452.90
2023-04-27T02:11:36.613Z,508.50
2023-04-27T02:12:18.661Z,446.80
2023-04-27T02:13:17.620Z,485.60
2023-04-27T02:14:17.637Z,419.20
2023-04-27T02:15:17.661Z,391.30
2023-04-27T02:16:17.680Z,494.80
2023-04-27T02:17:17.596Z,423.10
2023-04-27T02:18:17.574Z,398.10
2023-04-27T02:19:17.641Z,435.40
2023-04-27T02:20:17.594Z,450.50
2023-04-27T02:21:17.555Z,433.60
2023-04-27T02:22:17.615Z,436.70
2023-04-27T02:23:17.546Z,441.70
2023-04-27T02:24:18.512Z,425.80
2023-04-27T02:25:17.514Z,454.50
2023-04-27T02:26:17.569Z,437.90
2023-04-27T02:27:17.884Z,440.60
2023-04-27T02:28:17.489Z,456.40
2023-04-27T02:29:17.506Z,465.80
2023-04-27T02:30:17.491Z,495.80
2023-04-27T02:31:17.567Z,486.10
2023-04-27T02:32:17.475Z,708.40
2023-04-27T02:33:23.170Z,707.60
2023-04-27T02:34:17.476Z,601.30
2023-04-27T02:35:17.455Z,573.70
2023-04-27T02:36:17.443Z,617.40
2023-04-27T02:37:21.546Z,567.10
2023-04-27T02:38:18.510Z,558.20
2023-04-27T02:39:17.444Z,601.90
2023-04-27T02:40:17.439Z,574.20
2023-04-27T02:41:17.449Z,575.80
2023-04-27T02:42:17.483Z,518.80
2023-04-27T02:43:17.488Z,553.50
2023-04-27T02:44:17.418Z,530.20
2023-04-27T02:45:17.393Z,536.30
2023-04-27T02:46:26.641Z,543.30
2023-04-27T02:47:18.394Z,535.20
2023-04-27T02:48:17.376Z,555.70
2023-04-27T02:49:17.454Z,558.00
2023-04-27T02:50:17.376Z,439.50
2023-04-27T02:51:17.354Z,445.40
2023-04-27T02:52:17.375Z,458.90
2023-04-27T02:53:17.357Z,488.80
2023-04-27T02:54:36.006Z,482.80
2023-04-27T02:55:18.379Z,455.50
2023-04-27T02:56:17.358Z,523.70
2023-04-27T02:57:17.455Z,548.70
2023-04-27T02:58:17.309Z,542.30
2023-04-27T02:59:17.305Z,489.00
2023-04-27T03:00:17.324Z,500.80
2023-04-27T03:01:17.352Z,538.50
2023-04-27T03:02:17.435Z,549.10
2023-04-27T03:03:17.480Z,509.70
2023-04-27T03:04:17.380Z,539.40
2023-04-27T03:05:17.311Z,519.20
2023-04-27T03:06:17.233Z,551.20
2023-04-27T03:07:17.234Z,566.60
2023-04-27T03:08:17.254Z,518.40
2023-04-27T03:09:17.338Z,493.30
2023-04-27T03:10:17.237Z,487.00
2023-04-27T03:11:17.236Z,512.60
2023-04-27T03:12:17.198Z,526.00
2023-04-27T03:13:17.244Z,498.50
2023-04-27T03:14:17.203Z,484.80
2023-04-27T03:15:17.199Z,515.20
2023-04-27T03:16:17.273Z,488.40
2023-04-27T03:17:17.175Z,512.90
2023-04-27T03:18:17.215Z,466.40
2023-04-27T03:19:17.130Z,519.80
2023-04-27T03:20:17.196Z,446.00
2023-04-27T03:21:17.146Z,501.30
2023-04-27T03:22:17.197Z,512.20
2023-04-27T03:23:17.139Z,553.30
2023-04-27T03:24:17.179Z,520.20
2023-04-27T03:25:17.131Z,539.70
2023-04-27T03:26:17.141Z,542.80
2023-04-27T03:27:17.180Z,560.60
2023-04-27T03:28:17.097Z,688.40
2023-04-27T03:29:17.104Z,659.30
2023-04-27T03:30:17.080Z,583.90
2023-04-27T03:31:17.104Z,638.30
2023-04-27T03:32:17.070Z,700.80
2023-04-27T03:33:17.281Z,626.10
2023-04-27T03:34:17.030Z,619.90
2023-04-27T03:35:17.038Z,664.10
2023-04-27T03:36:17.084Z,613.00
2023-04-27T03:38:23.693Z,761.40
2023-04-27T03:39:24.910Z,680.80
2023-04-27T03:40:24.910Z,639.00
2023-04-27T03:41:24.954Z,574.00
2023-04-27T03:43:14.681Z,552.90
2023-04-27T03:43:25.871Z,626.10
2023-04-27T03:44:24.956Z,579.10
2023-04-27T03:45:24.933Z,532.80
2023-04-27T03:46:38.782Z,597.40
2023-04-27T03:47:25.861Z,572.60
2023-04-27T03:48:24.924Z,573.90
2023-04-27T03:49:25.000Z,656.90
2023-04-27T03:50:24.878Z,693.50
2023-04-27T03:51:24.894Z,703.50
2023-04-27T03:52:24.895Z,697.90
2023-04-27T03:53:24.906Z,710.70
2023-04-27T03:54:49.647Z,729.50
2023-04-27T03:55:24.732Z,778.40
2023-04-27T03:56:24.811Z,725.10
2023-04-27T03:57:24.753Z,827.20
2023-04-27T03:58:24.929Z,727.10
2023-04-27T03:59:24.759Z,698.40
2023-04-27T04:00:25.754Z,779.30
2023-04-27T04:01:25.065Z,772.90
2023-04-27T04:02:24.823Z,754.70
2023-04-27T04:03:24.938Z,786.20
2023-04-27T04:04:24.899Z,809.00
2023-04-27T04:05:24.751Z,853.50
2023-04-27T04:06:57.364Z,861.30
2023-04-27T04:07:25.679Z,824.90
2023-04-27T04:08:24.741Z,838.80
2023-04-27T04:09:24.802Z,845.90
2023-04-27T04:10:24.654Z,893.30
2023-04-27T04:11:24.900Z,901.80
2023-04-27T04:12:24.796Z,909.10
2023-04-27T04:13:29.939Z,861.90
2023-04-27T04:14:25.658Z,792.70
2023-04-27T04:15:24.676Z,778.60
2023-04-27T04:16:24.793Z,744.50
2023-04-27T04:17:24.806Z,677.50
2023-04-27T04:18:24.678Z,565.50
2023-04-27T04:19:24.685Z,547.40
2023-04-27T04:20:24.660Z,481.90
2023-04-27T04:21:53.449Z,484.90
2023-04-27T04:22:26.743Z,442.70
2023-04-27T04:23:24.657Z,419.40
2023-04-27T04:24:24.628Z,354.10
2023-04-27T04:25:25.656Z,385.20
2023-04-27T04:26:24.671Z,366.90
2023-04-27T04:27:24.682Z,397.30
2023-04-27T04:28:24.647Z,383.60
2023-04-27T04:29:35.170Z,424.30
2023-04-27T04:30:24.643Z,495.50
2023-04-27T04:31:33.657Z,524.00
2023-04-27T04:32:24.604Z,544.00
2023-04-27T04:33:24.495Z,577.30
2023-04-27T04:34:24.480Z,613.70
2023-04-27T04:35:24.538Z,652.50
2023-04-27T04:36:24.720Z,742.30
2023-04-27T04:37:29.858Z,713.20
2023-04-27T04:38:25.488Z,704.60
2023-04-27T04:39:24.437Z,729.00
2023-04-27T04:40:24.547Z,712.10
2023-04-27T04:41:24.483Z,723.00
2023-04-27T04:42:24.541Z,711.60
2023-04-27T04:43:24.552Z,516.30
2023-04-27T04:44:24.521Z,500.40
2023-04-27T04:45:24.559Z,586.00
2023-04-27T04:46:24.607Z,633.40
2023-04-27T04:47:29.989Z,588.20
2023-04-27T04:48:25.442Z,596.10
2023-04-27T04:49:24.450Z,550.10
2023-04-27T04:50:24.583Z,458.90
2023-04-27T04:51:24.482Z,482.30
2023-04-27T04:52:24.474Z,616.40
2023-04-27T04:54:03.878Z,612.10
2023-04-27T04:54:56.317Z,850.00
2023-04-27T04:55:56.403Z,837.80
2023-04-27T04:56:56.362Z,852.30
2023-04-27T04:57:25.357Z,838.20
2023-04-27T04:58:57.410Z,736.10
2023-04-27T04:59:56.358Z,916.20
2023-04-27T05:00:57.649Z,850.30
2023-04-27T05:01:57.496Z,791.20
2023-04-27T05:02:56.497Z,841.00
2023-04-27T05:03:24.349Z,828.10
2023-04-27T05:04:56.847Z,585.70
2023-04-27T05:07:24.709Z,548.30
2023-04-27T05:08:22.679Z,486.50
2023-04-27T05:09:22.831Z,481.60
2023-04-27T05:10:22.711Z,528.10
2023-04-27T05:11:22.721Z,571.20
2023-04-27T05:12:22.709Z,593.20
2023-04-27T05:13:22.712Z,657.40
2023-04-27T05:14:22.716Z,680.00
2023-04-27T05:15:22.780Z,606.70
2023-04-27T05:16:22.771Z,619.90
2023-04-27T05:17:25.768Z,650.30
2023-04-27T05:18:22.677Z,678.00
2023-04-27T05:19:22.720Z,663.20
2023-04-27T05:20:22.694Z,607.70
2023-04-27T05:21:22.763Z,624.70
2023-04-27T05:22:22.699Z,609.30
2023-04-27T05:23:22.707Z,608.40
2023-04-27T05:24:22.666Z,611.40
2023-04-27T05:25:22.718Z,566.30
2023-04-27T05:26:22.698Z,611.20
2023-04-27T05:27:22.751Z,623.80
2023-04-27T05:28:22.676Z,638.80
2023-04-27T05:29:22.723Z,695.00
2023-04-27T05:30:22.514Z,688.40
2023-04-27T05:31:22.534Z,619.60
2023-04-27T05:32:22.714Z,605.00
2023-04-27T05:33:22.604Z,523.70
2023-04-27T05:34:22.591Z,531.20
2023-04-27T05:35:22.575Z,501.80
2023-04-27T05:36:22.630Z,480.80
2023-04-27T05:37:22.713Z,579.40
2023-04-27T05:38:22.629Z,445.30
2023-04-27T05:39:22.584Z,430.60
2023-04-27T05:40:22.556Z,438.40
2023-04-27T05:41:22.523Z,499.10
2023-04-27T05:45:04.406Z,703.30
2023-04-27T05:46:05.406Z,413.40
2023-04-27T05:47:05.268Z,349.10
2023-04-27T05:48:05.374Z,454.20
2023-04-27T05:49:05.348Z,373.80
2023-04-27T05:50:05.343Z,390.30
2023-04-27T05:51:05.322Z,426.50
2023-04-27T05:52:05.318Z,448.60
2023-04-27T05:53:05.312Z,456.00
2023-04-27T05:54:05.296Z,418.20
2023-04-27T05:55:05.311Z,420.10
2023-04-27T05:56:05.357Z,514.80
2023-04-27T05:57:05.297Z,567.10
2023-04-27T05:58:09.060Z,613.60
2023-04-27T05:59:06.263Z,670.00
2023-04-27T06:00:05.122Z,613.00
2023-04-27T06:01:05.214Z,621.30
2023-04-27T06:02:05.320Z,609.20
2023-04-27T06:03:24.341Z,690.10
2023-04-27T06:04:06.209Z,722.00
2023-04-27T06:05:05.175Z,707.50
2023-04-27T06:06:05.179Z,660.20
2023-04-27T06:07:10.332Z,774.60
2023-04-27T06:08:05.115Z,705.10
2023-04-27T06:09:05.238Z,805.80
2023-04-27T06:10:05.157Z,885.50
2023-04-27T06:11:12.218Z,821.40
2023-04-27T06:12:05.081Z,793.80
2023-04-27T06:13:05.157Z,790.40
2023-04-27T06:14:05.099Z,853.80
2023-04-27T06:15:05.090Z,796.30
2023-04-27T06:16:05.220Z,835.30
2023-04-27T06:17:05.111Z,686.60
2023-04-27T06:18:05.166Z,785.90
2023-04-27T06:19:05.162Z,777.80
2023-04-27T06:20:21.919Z,716.30
2023-04-27T06:21:06.059Z,784.00
2023-04-27T06:22:36.980Z,729.40
2023-04-27T06:23:05.112Z,768.80
2023-04-27T06:24:04.951Z,723.40
2023-04-27T06:25:04.931Z,770.90
2023-04-27T06:26:04.977Z,736.80
2023-04-27T06:27:04.905Z,646.30
2023-04-27T06:28:05.028Z,766.20
2023-04-27T06:29:04.994Z,756.60
2023-04-27T06:30:05.041Z,789.70
2023-04-27T06:31:05.073Z,803.30
2023-04-27T06:32:05.049Z,764.10
2023-04-27T06:33:10.114Z,746.30
2023-04-27T06:34:04.991Z,759.00
2023-04-27T06:36:23.452Z,559.50
2023-04-27T06:37:24.718Z,627.80
2023-04-27T06:38:24.671Z,607.30
2023-04-27T06:39:24.677Z,592.10
2023-04-27T06:40:24.619Z,551.20
2023-04-27T06:41:25.584Z,479.00
2023-04-27T06:42:24.594Z,290.00
2023-04-27T06:43:24.583Z,276.40
2023-04-27T06:44:24.585Z,257.50
2023-04-27T06:47:21.827Z,546.30
2023-04-27T06:48:23.113Z,564.00
2023-04-27T06:49:23.137Z,377.10
2023-04-27T06:50:23.205Z,319.30
2023-04-27T06:51:23.131Z,288.70
2023-04-27T06:52:23.183Z,305.00
2023-04-27T06:53:23.166Z,370.60
2023-04-27T06:54:23.176Z,352.60
2023-04-27T06:55:23.170Z,264.20
2023-04-27T06:56:23.120Z,235.80
2023-04-27T06:57:23.178Z,148.90
2023-04-27T06:58:23.080Z,182.30
2023-04-27T06:59:23.009Z,237.00
2023-04-27T07:00:22.999Z,242.60
2023-04-27T07:03:31.495Z,277.50
2023-04-27T07:04:32.685Z,208.80
2023-04-27T07:05:32.701Z,188.60
2023-04-27T07:06:32.587Z,154.10
2023-04-27T07:07:32.648Z,222.70
2023-04-27T07:08:32.696Z,243.50
2023-04-27T07:09:32.914Z,341.10
2023-04-27T07:10:32.568Z,266.60
2023-04-27T07:11:32.541Z,260.60
2023-04-27T07:12:32.527Z,344.00
2023-04-27T07:15:29.809Z,377.30
2023-04-27T07:16:31.184Z,429.40
2023-04-27T07:17:31.028Z,408.90
2023-04-27T07:18:31.012Z,362.40
2023-04-27T07:19:31.189Z,422.50
2023-04-27T07:20:31.142Z,426.50
2023-04-27T07:21:31.270Z,374.50
2023-04-27T07:22:31.049Z,351.10
2023-04-27T07:23:30.952Z,345.20
2023-04-27T07:24:30.922Z,361.00
2023-04-27T07:25:30.880Z,382.50
2023-04-27T07:26:30.931Z,399.20
2023-04-27T07:27:30.977Z,395.90
2023-04-27T07:28:30.882Z,374.60
2023-04-27T07:29:31.267Z,392.00
2023-04-27T07:30:31.150Z,365.70
2023-04-27T07:31:31.065Z,353.20
2023-04-27T07:32:31.009Z,327.90
2023-04-27T07:33:31.115Z,356.90
2023-04-27T07:34:41.095Z,346.90
2023-04-27T07:35:32.913Z,328.40
2023-04-27T07:36:30.954Z,357.90
2023-04-27T07:37:32.002Z,338.40
2023-04-27T07:38:30.968Z,380.30
2023-04-27T07:39:30.898Z,409.20
2023-04-27T07:40:31.024Z,449.20
2023-04-27T07:41:30.868Z,451.80
2023-04-27T07:43:02.897Z,405.30
2023-04-27T07:43:30.834Z,558.30
2023-04-27T07:44:30.802Z,362.10
2023-04-27T07:45:30.801Z,382.80
2023-04-27T07:46:30.912Z,359.20
2023-04-27T07:47:30.803Z,334.50
2023-04-27T07:48:30.891Z,405.70
2023-04-27T07:49:30.912Z,407.90
2023-04-27T07:50:30.876Z,423.50
2023-04-27T07:51:30.857Z,412.40
2023-04-27T07:52:30.836Z,362.20
2023-04-27T07:53:31.248Z,370.00
2023-04-27T07:54:30.853Z,362.00
2023-04-27T07:55:30.810Z,330.90
2023-04-27T07:56:30.795Z,341.60
2023-04-27T07:57:30.826Z,337.60
2023-04-27T07:58:30.807Z,336.00
2023-04-27T07:59:30.806Z,305.10
2023-04-27T08:00:30.666Z,343.10
2023-04-27T08:01:30.659Z,336.20
2023-04-27T08:02:30.899Z,356.10
2023-04-27T08:03:30.974Z,352.60
2023-04-27T08:04:30.907Z,401.80
2023-04-27T08:05:31.229Z,381.10
2023-04-27T08:06:31.135Z,344.90
2023-04-27T08:07:31.059Z,361.50
2023-04-27T08:08:30.659Z,361.10
2023-04-27T08:09:30.653Z,403.00
2023-04-27T08:10:31.640Z,592.50
2023-04-27T08:11:30.788Z,396.30
2023-04-27T08:12:30.654Z,431.10
2023-04-27T08:13:30.714Z,383.60
2023-04-27T08:14:30.677Z,381.40
2023-04-27T08:15:31.130Z,380.90
2023-04-27T08:16:30.735Z,431.70
2023-04-27T08:17:30.607Z,389.00
2023-04-27T08:18:30.679Z,356.30
2023-04-27T08:19:30.657Z,368.40
2023-04-27T08:20:30.519Z,362.80
2023-04-27T08:21:30.626Z,328.80
2023-04-27T08:22:30.502Z,300.30
2023-04-27T08:23:30.538Z,339.00
2023-04-27T08:24:30.526Z,343.10
2023-04-27T08:25:30.499Z,280.30
2023-04-27T08:26:30.614Z,320.90
2023-04-27T08:27:30.479Z,326.80
2023-04-27T08:28:30.735Z,334.60
2023-04-27T08:29:30.802Z,275.50
2023-04-27T08:30:30.517Z,253.60
2023-04-27T08:31:30.623Z,229.30
2023-04-27T08:32:30.696Z,288.50
2023-04-27T08:33:30.537Z,241.80
2023-04-27T08:34:30.529Z,244.80
2023-04-27T08:35:30.555Z,225.50
2023-04-27T08:36:30.546Z,211.00
2023-04-27T08:37:30.598Z,225.80
2023-04-27T08:38:30.527Z,234.00
2023-04-27T08:39:30.465Z,277.70
2023-04-27T08:40:30.492Z,284.30
2023-04-27T08:41:30.479Z,289.60
2023-04-27T08:42:30.491Z,365.60
2023-04-27T08:43:30.558Z,308.10
2023-04-27T08:44:30.466Z,340.50
2023-04-27T08:45:30.365Z,258.10
2023-04-27T08:46:30.413Z,273.60
2023-04-27T08:47:41.856Z,294.20
2023-04-27T08:48:32.507Z,312.50
2023-04-27T08:49:30.363Z,308.30
2023-04-27T08:50:30.306Z,280.10
2023-04-27T08:51:30.547Z,253.30
2023-04-27T08:53:02.313Z,274.40
2023-04-27T08:53:30.541Z,663.20
2023-04-27T08:54:30.391Z,284.20
2023-04-27T08:55:30.424Z,248.70
2023-04-27T08:56:30.365Z,277.00
2023-04-27T08:57:30.418Z,284.80
2023-04-27T08:58:30.390Z,250.90
2023-04-27T08:59:30.777Z,359.00
2023-04-27T09:00:30.295Z,336.80
2023-04-27T09:01:30.392Z,290.90
2023-04-27T09:02:30.365Z,260.60
2023-04-27T09:03:30.532Z,243.00
2023-04-27T09:04:30.578Z,289.70
2023-04-27T09:05:30.324Z,315.30
2023-04-27T09:06:30.408Z,270.90
2023-04-27T09:07:30.301Z,232.60
2023-04-27T09:08:30.432Z,192.50
2023-04-27T09:09:30.417Z,186.90
2023-04-27T09:10:30.421Z,189.40
2023-04-27T09:11:30.298Z,210.90
2023-04-27T09:12:30.240Z,178.20
2023-04-27T09:13:30.172Z,208.70
2023-04-27T09:14:30.159Z,161.40
2023-04-27T09:15:30.146Z,164.20
2023-04-27T09:16:30.174Z,197.00
2023-04-27T09:17:30.108Z,184.00
2023-04-27T09:18:30.066Z,199.50
2023-04-27T09:19:30.059Z,204.90
2023-04-27T09:20:30.040Z,299.10
2023-04-27T09:21:30.095Z,225.50
2023-04-27T09:22:30.038Z,158.60
2023-04-27T09:23:30.055Z,250.40
2023-04-27T09:24:30.051Z,275.00
2023-04-27T09:25:30.025Z,260.60
2023-04-27T09:26:30.177Z,219.00
2023-04-27T09:27:30.211Z,213.80
2023-04-27T09:28:30.176Z,217.90
2023-04-27T09:29:30.191Z,263.10
2023-04-27T09:30:30.529Z,288.30
2023-04-27T09:31:30.368Z,216.90
2023-04-27T09:32:30.103Z,277.90
2023-04-27T09:33:30.198Z,249.50
2023-04-27T09:34:30.132Z,315.90
2023-04-27T09:35:30.154Z,349.40
2023-04-27T09:36:30.124Z,293.60
2023-04-27T09:37:30.127Z,284.10
2023-04-27T09:38:30.112Z,238.10
2023-04-27T09:39:30.073Z,246.00
2023-04-27T09:40:30.006Z,263.30
2023-04-27T09:41:29.992Z,288.40
2023-04-27T09:42:30.078Z,224.50
2023-04-27T09:43:29.884Z,320.20
2023-04-27T09:44:29.908Z,330.00
2023-04-27T09:45:30.037Z,306.00
2023-04-27T09:46:30.049Z,355.00
2023-04-27T09:47:30.013Z,337.10
2023-04-27T09:48:30.006Z,358.90
2023-04-27T09:49:30.039Z,304.00
2023-04-27T09:50:29.922Z,318.30
2023-04-27T09:51:29.905Z,343.60
2023-04-27T09:52:29.896Z,371.50
2023-04-27T09:53:29.948Z,326.50
2023-04-27T09:54:29.945Z,326.40
2023-04-27T09:55:29.979Z,342.70
2023-04-27T09:56:30.061Z,331.60
2023-04-27T09:57:30.015Z,301.70
2023-04-27T09:58:29.987Z,310.30
2023-04-27T09:59:29.891Z,296.30
2023-04-27T10:00:30.008Z,363.10
2023-04-27T10:01:29.962Z,285.00
2023-04-27T10:02:29.878Z,391.10
2023-04-27T10:03:29.893Z,371.40
2023-04-27T10:04:30.630Z,423.60
2023-04-27T10:06:01.825Z,451.30
2023-04-27T10:06:29.789Z,481.60
2023-04-27T10:07:29.855Z,431.40
2023-04-27T10:08:29.939Z,371.20
2023-04-27T10:09:29.915Z,319.70
2023-04-27T10:10:29.891Z,292.70
2023-04-27T10:11:29.891Z,291.40
2023-04-27T10:12:29.870Z,280.00
2023-04-27T10:13:29.863Z,227.70
2023-04-27T10:14:29.801Z,201.60
2023-04-27T10:15:30.012Z,158.60
2023-04-27T10:16:30.065Z,151.10
2023-04-27T10:17:29.906Z,178.70
2023-04-27T10:18:29.791Z,201.40
2023-04-27T10:19:29.933Z,184.40
2023-04-27T10:20:29.786Z,167.70
2023-04-27T10:21:29.682Z,175.90
2023-04-27T10:22:29.619Z,175.30
2023-04-27T10:23:29.767Z,276.70
2023-04-27T10:24:29.657Z,191.40
2023-04-27T10:25:29.639Z,177.80
2023-04-27T10:26:29.953Z,168.20
2023-04-27T10:27:29.684Z,240.90
2023-04-27T10:28:29.674Z,294.60
2023-04-27T10:29:29.692Z,272.30
2023-04-27T10:30:29.733Z,253.10
2023-04-27T10:31:30.052Z,236.60
2023-04-27T10:32:29.754Z,285.80
2023-04-27T10:33:29.676Z,270.70
2023-04-27T10:34:29.739Z,307.30
2023-04-27T10:35:29.678Z,257.70
2023-04-27T10:36:29.726Z,382.10
2023-04-27T10:37:29.682Z,359.50
2023-04-27T10:38:29.793Z,354.50
2023-04-27T10:39:40.059Z,279.00
2023-04-27T10:40:31.702Z,296.50
2023-04-27T10:41:29.706Z,282.50
2023-04-27T10:42:29.624Z,279.70
2023-04-27T10:43:29.682Z,279.80
2023-04-27T10:44:29.623Z,301.90
2023-04-27T10:45:31.578Z,282.60
2023-04-27T10:46:30.754Z,292.70
2023-04-27T10:47:34.875Z,330.00
2023-04-27T10:48:30.604Z,342.60
2023-04-27T10:49:29.603Z,296.70
2023-04-27T10:50:29.537Z,350.80
2023-04-27T10:51:29.510Z,381.40
2023-04-27T10:52:29.556Z,365.60
2023-04-27T10:53:29.584Z,443.60
2023-04-27T10:54:29.579Z,391.60
2023-04-27T10:55:29.588Z,380.30
2023-04-27T10:56:29.486Z,408.30
2023-04-27T10:58:01.456Z,304.80
2023-04-27T10:58:41.092Z,345.00
2023-04-27T10:59:31.503Z,302.00
2023-04-27T11:00:29.494Z,266.80
2023-04-27T11:01:29.716Z,268.20
2023-04-27T11:02:29.603Z,269.70
2023-04-27T11:03:29.597Z,269.00
2023-04-27T11:04:29.563Z,233.20
2023-04-27T11:05:29.441Z,237.70
2023-04-27T11:06:29.450Z,243.00
2023-04-27T11:07:29.461Z,271.80
2023-04-27T11:08:29.399Z,300.00
2023-04-27T11:09:29.557Z,329.40
2023-04-27T11:10:30.248Z,373.00
2023-04-27T11:11:29.286Z,354.50
2023-04-27T11:12:29.314Z,384.70
2023-04-27T11:13:29.300Z,377.80
2023-04-27T11:14:29.319Z,391.20
2023-04-27T11:15:29.322Z,291.40
2023-04-27T11:16:31.999Z,283.80
2023-04-27T11:17:29.322Z,328.80
2023-04-27T11:18:29.516Z,304.40
2023-04-27T11:19:29.511Z,230.70
2023-04-27T11:20:29.623Z,334.90
2023-04-27T11:21:29.368Z,263.00
2023-04-27T11:22:29.567Z,303.60
2023-04-27T11:23:29.401Z,301.60
2023-04-27T11:24:29.480Z,303.10
2023-04-27T11:25:29.261Z,324.90
2023-04-27T11:26:29.534Z,295.40
2023-04-27T11:27:29.342Z,315.40
2023-04-27T11:28:29.437Z,319.30
2023-04-27T11:29:29.372Z,333.50
2023-04-27T11:30:29.520Z,340.50
2023-04-27T11:31:29.572Z,353.70
2023-04-27T11:32:29.278Z,338.50
2023-04-27T11:33:29.209Z,375.10
2023-04-27T11:34:29.279Z,421.60
2023-04-27T11:35:29.326Z,368.70
2023-04-27T11:36:29.307Z,337.70
2023-04-27T11:37:29.390Z,338.10
2023-04-27T11:38:29.427Z,340.20
2023-04-27T11:39:29.419Z,401.60
2023-04-27T11:40:29.399Z,338.00
2023-04-27T11:41:29.203Z,346.00
2023-04-27T11:42:29.620Z,334.60
2023-04-27T11:43:29.311Z,339.70
2023-04-27T11:44:29.186Z,304.10
2023-04-27T11:45:29.380Z,301.00
2023-04-27T11:47:01.274Z,313.40
2023-04-27T11:47:29.093Z,289.20
2023-04-27T11:48:29.163Z,226.00
2023-04-27T11:49:29.313Z,205.10
2023-04-27T11:50:29.065Z,260.70
2023-04-27T11:51:29.030Z,254.50
2023-04-27T11:52:29.107Z,294.90
2023-04-27T11:53:37.753Z,216.90
2023-04-27T11:54:30.108Z,175.30
2023-04-27T11:55:29.028Z,191.70
2023-04-27T11:56:29.095Z,190.00
2023-04-27T11:57:29.045Z,198.20
2023-04-27T11:58:29.196Z,243.90
2023-04-27T11:59:29.160Z,196.20
2023-04-27T12:00:29.102Z,193.60
2023-04-27T12:01:37.639Z,209.60
2023-04-27T12:02:31.449Z,195.20
2023-04-27T12:03:29.318Z,188.60
2023-04-27T12:04:29.435Z,188.00
2023-04-27T12:05:29.141Z,159.40
2023-04-27T12:06:33.043Z,157.00
2023-04-27T12:07:30.002Z,166.40
2023-04-27T12:09:02.070Z,182.70
2023-04-27T12:09:29.027Z,212.20
2023-04-27T12:11:01.951Z,155.70
2023-04-27T12:11:29.027Z,182.10
2023-04-27T12:12:29.144Z,180.20
2023-04-27T12:15:26.780Z,194.00
2023-04-27T12:16:28.043Z,172.00
2023-04-27T12:21:24.116Z,164.00
2023-04-27T12:22:25.254Z,182.80
2023-04-27T12:23:25.258Z,215.60
2023-04-27T12:24:25.385Z,247.40
2023-04-27T12:25:25.278Z,219.00
2023-04-27T12:26:25.310Z,207.70
2023-04-27T12:27:25.477Z,253.60
2023-04-27T12:28:25.376Z,273.90
2023-04-27T12:29:25.384Z,288.40
2023-04-27T12:30:25.425Z,284.80
2023-04-27T12:31:57.556Z,331.80
2023-04-27T12:32:25.233Z,307.50
2023-04-27T12:33:25.310Z,292.70
2023-04-27T12:34:25.608Z,241.30
2023-04-27T12:37:23.889Z,139.20
2023-04-27T12:38:23.677Z,121.50
2023-04-27T12:39:23.809Z,104.50
2023-04-27T12:40:23.723Z,100.80
2023-04-27T12:41:23.687Z,114.00
2023-04-27T12:42:23.849Z,116.30
2023-04-27T12:43:23.600Z,106.40
2023-04-27T12:44:23.597Z,124.70
2023-04-27T12:45:23.556Z,139.60
2023-04-27T12:46:23.614Z,168.00
2023-04-27T12:48:24.744Z,175.60
2023-04-27T12:49:23.717Z,178.40
2023-04-27T12:50:23.626Z,195.60